Archival Weather

South Haven Area Rgnl

South Haven, Michigan (KLWA)

Report from: Wednesday, December 6, 2023 7:15 AM EST
Current time: Saturday, February 24, 2024 11:33 AM EST

Current weather – Weather history – Daily summaries
Weather forecast

Temperature4.7°C (40.5°F)
Wind chill1.4°C (34.6°F)
Dew point-2.2°C (28.0°F)
Winds 8 kts (4.1 m/s, 9.2 mph) Northwest (310°)
Visibility10 mi. (16.1 km)
Clouds Ceiling: Overcast 4,500 ft. (1,372 m)
Altimeter30.22 in.Hg (1023 mB)
Relative humidity61 %
Density altitude-1,508 ft. (-460 m)
Remarks Fully automated report
Automated weather observing station with precipitation discriminator
Flight conditions Visual Meteorological Conditions
Raw dataKLWA 061215Z AUTO 31008KT 10SM OVC045 05/M02 A3022 RMK AO2 T00471022
An error has occurred. This application may no longer respond until reloaded. Reload 🗙